createdAt,value
2019-02-08T00:01:29.497Z,4.50
2019-02-08T00:04:10.141Z,4.40
2019-02-08T00:06:44.385Z,4.40
2019-02-08T00:09:27.659Z,4.40
2019-02-08T00:12:02.564Z,4.50
2019-02-08T00:14:38.502Z,4.50
2019-02-08T00:17:16.241Z,4.50
2019-02-08T00:20:13.064Z,4.50
2019-02-08T00:23:02.700Z,4.50
2019-02-08T00:31:39.795Z,4.50
2019-02-08T00:34:24.589Z,4.50
2019-02-08T00:37:15.240Z,4.50
2019-02-08T00:39:51.936Z,4.50
2019-02-08T00:42:30.000Z,4.50
2019-02-08T00:45:03.415Z,4.50
2019-02-08T00:47:36.711Z,4.50
2019-02-08T00:50:38.311Z,4.50
2019-02-08T00:53:21.432Z,4.50
2019-02-08T00:55:52.753Z,4.60
2019-02-08T00:58:25.145Z,4.60
2019-02-08T01:01:01.882Z,4.60
2019-02-08T01:03:32.992Z,4.60
2019-02-08T01:06:06.219Z,4.70
2019-02-08T01:08:37.230Z,4.70
2019-02-08T01:11:10.670Z,4.70
2019-02-08T01:13:42.775Z,4.70
2019-02-08T01:16:23.376Z,4.70
2019-02-08T01:18:57.167Z,4.60
2019-02-08T01:21:28.113Z,4.70
2019-02-08T01:24:17.086Z,4.70
2019-02-08T01:26:53.873Z,4.70
2019-02-08T01:29:37.397Z,4.70
2019-02-08T01:32:08.602Z,4.60
2019-02-08T01:34:39.806Z,4.60
2019-02-08T01:37:13.842Z,4.60
2019-02-08T01:39:46.233Z,4.60
2019-02-08T01:42:19.964Z,4.60
2019-02-08T01:44:52.075Z,4.60
2019-02-08T01:47:28.667Z,4.60
2019-02-08T01:50:02.167Z,4.60
2019-02-08T01:52:38.349Z,4.60
2019-02-08T01:55:10.582Z,4.70
2019-02-08T01:57:41.710Z,4.70
2019-02-08T02:00:38.295Z,4.70
2019-02-08T02:03:14.427Z,4.70
2019-02-08T02:05:49.373Z,4.70
2019-02-08T02:08:22.092Z,4.70
2019-02-08T02:10:56.179Z,4.70
2019-02-08T02:13:27.609Z,4.70
2019-02-08T02:16:04.281Z,4.70
2019-02-08T02:18:39.973Z,4.60
2019-02-08T02:21:15.111Z,4.60
2019-02-08T02:23:55.950Z,4.60
2019-02-08T02:26:26.243Z,4.60
2019-02-08T02:28:57.736Z,4.50
2019-02-08T02:31:30.065Z,4.50
2019-02-08T02:34:09.239Z,4.50
2019-02-08T02:36:37.686Z,4.50
2019-02-08T02:39:15.095Z,4.50
2019-02-08T02:41:46.024Z,4.50
2019-02-08T02:44:17.919Z,4.50
2019-02-08T02:46:49.298Z,4.50
2019-02-08T02:49:20.344Z,4.40
2019-02-08T02:51:52.581Z,4.40
2019-02-08T02:54:23.894Z,4.40
2019-02-08T02:57:17.385Z,4.40
2019-02-08T02:59:34.989Z,4.40
2019-02-08T03:02:40.443Z,4.40
2019-02-08T03:05:22.029Z,4.40
2019-02-08T03:08:04.694Z,4.40
2019-02-08T03:10:47.302Z,4.40
2019-02-08T03:14:16.909Z,4.40
2019-02-08T03:15:58.479Z,4.40
2019-02-08T03:18:35.986Z,4.40
2019-02-08T03:21:04.456Z,4.30
2019-02-08T03:23:36.712Z,4.30
2019-02-08T03:26:16.349Z,4.30
2019-02-08T03:28:54.052Z,4.30
2019-02-08T03:31:29.238Z,4.30
2019-02-08T03:34:01.085Z,4.30
2019-02-08T03:36:36.199Z,4.40
2019-02-08T03:39:10.741Z,4.40
2019-02-08T03:41:43.370Z,4.40
2019-02-08T03:44:17.678Z,4.40
2019-02-08T03:46:48.613Z,4.40
2019-02-08T03:49:25.306Z,4.40
2019-02-08T03:51:57.422Z,4.50
2019-02-08T03:54:30.540Z,4.50
2019-02-08T03:57:03.483Z,4.50
2019-02-08T03:59:36.473Z,4.50
2019-02-08T04:02:15.648Z,4.50
2019-02-08T04:04:49.410Z,4.50
2019-02-08T04:07:25.853Z,4.50
2019-02-08T04:09:59.628Z,4.50
2019-02-08T04:12:30.460Z,4.50
2019-02-08T04:15:02.520Z,4.50
2019-02-08T04:17:35.646Z,4.50
2019-02-08T04:20:07.365Z,4.50
2019-02-08T04:22:43.605Z,4.50
2019-02-08T04:25:16.565Z,4.50
2019-02-08T04:27:48.190Z,4.50
2019-02-08T04:30:32.153Z,4.50
2019-02-08T04:33:03.632Z,4.50
2019-02-08T04:35:41.874Z,4.50
2019-02-08T04:38:18.431Z,4.50
2019-02-08T04:40:50.497Z,4.50
2019-02-08T04:43:26.587Z,4.50
2019-02-08T04:46:23.769Z,4.50
2019-02-08T04:49:09.351Z,4.50
2019-02-08T04:51:40.951Z,4.50
2019-02-08T04:54:22.496Z,4.50
2019-02-08T04:56:55.366Z,4.50
2019-02-08T04:59:28.077Z,4.50
2019-02-08T05:02:00.911Z,4.50
2019-02-08T05:04:35.038Z,4.50
2019-02-08T05:07:06.330Z,4.50
2019-02-08T05:09:42.461Z,4.40
2019-02-08T05:12:11.917Z,4.40
2019-02-08T05:14:45.914Z,4.40
2019-02-08T05:17:17.526Z,4.50
2019-02-08T05:19:48.518Z,4.50
2019-02-08T05:22:34.867Z,4.50
2019-02-08T05:25:08.598Z,4.50
2019-02-08T05:27:39.714Z,4.60
2019-02-08T05:30:21.734Z,4.60
2019-02-08T05:32:54.236Z,4.60
2019-02-08T05:35:26.775Z,4.60
2019-02-08T05:38:00.310Z,4.60
2019-02-08T05:40:31.764Z,4.60
2019-02-08T05:43:02.969Z,4.60
2019-02-08T05:46:24.716Z,4.60
2019-02-08T05:48:15.071Z,4.60
2019-02-08T05:50:52.016Z,4.60
2019-02-08T05:53:23.259Z,4.60
2019-02-08T05:55:58.766Z,4.60
2019-02-08T05:58:31.095Z,4.60
2019-02-08T06:01:04.303Z,4.60
2019-02-08T06:03:37.501Z,4.60
2019-02-08T06:06:08.616Z,4.60
2019-02-08T06:08:39.523Z,4.60
2019-02-08T06:11:10.332Z,4.60
2019-02-08T06:13:43.062Z,4.60
2019-02-08T06:16:14.080Z,4.60
2019-02-08T06:18:48.050Z,4.50
2019-02-08T06:21:23.658Z,4.50
2019-02-08T06:23:57.270Z,4.50
2019-02-08T06:26:35.328Z,4.50
2019-02-08T06:29:03.601Z,4.50
2019-02-08T06:31:34.749Z,4.50
2019-02-08T06:34:06.220Z,4.50
2019-02-08T06:36:37.509Z,4.50
2019-02-08T06:39:16.244Z,4.50
2019-02-08T06:41:49.173Z,4.50
2019-02-08T06:44:40.204Z,4.50
2019-02-08T06:47:15.196Z,4.50
2019-02-08T06:49:53.089Z,4.50
2019-02-08T06:52:24.851Z,4.50
2019-02-08T06:55:10.490Z,4.50
2019-02-08T06:57:44.066Z,4.50
2019-02-08T07:00:33.021Z,4.50
2019-02-08T07:03:28.386Z,4.50
2019-02-08T07:06:19.607Z,4.50
2019-02-08T07:09:09.232Z,4.50
2019-02-08T07:11:56.029Z,4.50
2019-02-08T07:14:46.177Z,4.50
2019-02-08T07:17:32.091Z,4.50
2019-02-08T07:20:33.493Z,4.50
2019-02-08T07:23:20.110Z,4.60
2019-02-08T07:26:08.774Z,4.60
2019-02-08T07:28:54.388Z,4.60
2019-02-08T07:31:47.835Z,4.60
2019-02-08T07:34:27.003Z,4.70
2019-02-08T07:37:54.774Z,4.70
2019-02-08T07:40:58.682Z,4.70
2019-02-08T07:43:56.250Z,4.80
2019-02-08T07:46:44.560Z,4.80
2019-02-08T07:49:39.600Z,4.90
2019-02-08T07:52:52.942Z,4.90
2019-02-08T07:55:32.981Z,5.00
2019-02-08T07:58:58.399Z,5.10
2019-02-08T08:01:53.196Z,5.10
2019-02-08T08:04:49.915Z,5.20
2019-02-08T08:07:45.038Z,5.20
2019-02-08T08:10:40.266Z,5.30
2019-02-08T08:13:28.965Z,5.30
2019-02-08T08:16:20.579Z,5.40
2019-02-08T08:19:29.791Z,5.50
2019-02-08T08:22:19.655Z,5.50
2019-02-08T08:25:17.426Z,5.60
2019-02-08T08:28:25.393Z,5.60
2019-02-08T08:31:58.969Z,5.60
2019-02-08T08:35:30.976Z,5.70
2019-02-08T08:39:07.853Z,5.80
2019-02-08T08:42:43.352Z,5.90
2019-02-08T08:46:11.920Z,5.90
2019-02-08T08:49:32.431Z,6.00
2019-02-08T08:53:27.131Z,6.20
2019-02-08T08:57:15.731Z,6.20
2019-02-08T09:00:50.136Z,6.30
2019-02-08T09:12:44.694Z,6.50
2019-02-08T09:15:44.619Z,6.60
2019-02-08T09:19:52.473Z,6.70
2019-02-08T09:23:30.026Z,6.70
2019-02-08T09:27:12.870Z,6.80
2019-02-08T09:31:06.367Z,7.00
2019-02-08T09:34:40.869Z,7.10
2019-02-08T09:38:03.959Z,7.20
2019-02-08T09:41:30.313Z,7.20
2019-02-08T09:44:43.338Z,7.30
2019-02-08T09:48:26.775Z,7.40
2019-02-08T09:52:19.338Z,7.50
2019-02-08T09:55:48.262Z,7.50
2019-02-08T09:59:20.019Z,7.60
2019-02-08T10:02:55.327Z,7.70
2019-02-08T10:06:49.552Z,7.80
2019-02-08T10:10:33.357Z,7.90
2019-02-08T10:14:14.345Z,8.00
2019-02-08T10:18:26.623Z,8.00
2019-02-08T10:21:58.534Z,8.10
2019-02-08T10:25:27.792Z,8.20
2019-02-08T10:29:20.613Z,8.30
2019-02-08T10:32:54.340Z,8.40
2019-02-08T10:36:43.579Z,8.40
2019-02-08T10:44:11.680Z,8.60
2019-02-08T10:47:25.647Z,8.80
2019-02-08T10:51:04.577Z,8.90
2019-02-08T10:54:22.890Z,8.90
2019-02-08T10:57:54.309Z,8.80
2019-02-08T11:01:43.583Z,8.90
2019-02-08T11:05:29.727Z,8.90
2019-02-08T11:08:52.561Z,9.00
2019-02-08T11:12:23.426Z,9.00
2019-02-08T11:16:22.749Z,9.00
2019-02-08T11:19:23.414Z,9.10
2019-02-08T11:21:58.492Z,9.20
2019-02-08T11:24:35.836Z,9.30
2019-02-08T11:27:10.721Z,9.40
2019-02-08T11:30:16.595Z,9.50
2019-02-08T11:32:49.548Z,9.50
2019-02-08T11:35:29.641Z,9.50
2019-02-08T11:38:11.847Z,9.50
2019-02-08T11:40:44.586Z,9.60
2019-02-08T11:43:17.381Z,9.60
2019-02-08T11:45:52.315Z,9.60
2019-02-08T11:48:25.665Z,9.60
2019-02-08T11:50:59.122Z,9.60
2019-02-08T11:53:31.601Z,9.60
2019-02-08T11:56:16.410Z,9.60
2019-02-08T11:58:56.838Z,9.60
2019-02-08T12:01:44.521Z,9.60
2019-02-08T12:04:22.459Z,9.60
2019-02-08T12:06:54.896Z,9.50
2019-02-08T12:09:29.248Z,9.50
2019-02-08T12:12:00.159Z,9.50
2019-02-08T12:14:36.007Z,9.60
2019-02-08T12:17:06.859Z,9.60
2019-02-08T12:19:38.117Z,9.60
2019-02-08T12:22:09.167Z,9.60
2019-02-08T12:24:47.043Z,9.70
2019-02-08T12:27:30.289Z,9.70
2019-02-08T12:30:05.310Z,9.70
2019-02-08T12:32:40.419Z,9.70
2019-02-08T12:35:14.503Z,9.70
2019-02-08T12:37:45.957Z,9.60
2019-02-08T12:40:22.728Z,9.70
2019-02-08T12:42:57.298Z,9.80
2019-02-08T12:45:30.596Z,9.70
2019-02-08T12:48:01.535Z,9.70
2019-02-08T12:50:44.244Z,9.60
2019-02-08T12:53:15.168Z,9.60
2019-02-08T12:55:59.352Z,9.60
2019-02-08T13:04:52.260Z,9.70
2019-02-08T13:07:54.648Z,9.70
2019-02-08T13:10:29.444Z,9.70
2019-02-08T13:13:17.114Z,9.80
2019-02-08T13:15:52.610Z,9.80
2019-02-08T13:18:27.541Z,9.90
2019-02-08T13:21:27.484Z,9.90
2019-02-08T13:24:01.055Z,9.90
2019-02-08T13:26:33.887Z,9.90
2019-02-08T13:29:24.744Z,9.90
2019-02-08T13:31:52.173Z,9.80
2019-02-08T13:34:27.503Z,9.70
2019-02-08T13:36:59.479Z,9.60
2019-02-08T13:39:34.450Z,9.50
2019-02-08T13:42:06.095Z,9.50
2019-02-08T13:44:42.974Z,9.60
2019-02-08T13:47:36.654Z,9.60
2019-02-08T13:50:14.046Z,9.60
2019-02-08T13:53:02.593Z,9.60
2019-02-08T13:55:26.702Z,9.60
2019-02-08T13:58:06.069Z,9.70
2019-02-08T14:00:42.405Z,9.70
2019-02-08T14:03:15.921Z,9.70
2019-02-08T14:05:49.773Z,9.70
2019-02-08T14:08:23.598Z,9.80
2019-02-08T14:10:55.023Z,9.80
2019-02-08T14:13:29.874Z,9.80
2019-02-08T14:16:06.108Z,9.80
2019-02-08T14:18:40.252Z,9.80
2019-02-08T14:21:20.903Z,9.70
2019-02-08T14:23:57.708Z,9.70
2019-02-08T14:26:33.909Z,9.60
2019-02-08T14:29:07.335Z,9.60
2019-02-08T14:31:44.746Z,9.60
2019-02-08T14:34:22.701Z,9.60
2019-02-08T14:37:01.792Z,9.60
2019-02-08T14:39:36.061Z,9.60
2019-02-08T14:42:52.389Z,9.60
2019-02-08T14:45:39.673Z,9.60
2019-02-08T14:48:06.007Z,9.60
2019-02-08T14:54:18.705Z,9.60
2019-02-08T14:57:07.542Z,9.50
2019-02-08T14:59:47.656Z,9.60
2019-02-08T15:02:35.139Z,9.50
2019-02-08T15:05:13.930Z,9.50
2019-02-08T15:08:28.461Z,9.50
2019-02-08T15:11:03.757Z,9.50
2019-02-08T15:13:46.476Z,9.50
2019-02-08T15:17:46.864Z,9.40
2019-02-08T15:19:57.950Z,9.40
2019-02-08T15:23:07.701Z,9.40
2019-02-08T15:32:47.014Z,9.20
2019-02-08T15:35:20.512Z,9.20
2019-02-08T15:38:07.275Z,9.10
2019-02-08T15:41:08.287Z,9.10
2019-02-08T15:43:47.393Z,9.10
2019-02-08T15:46:34.740Z,9.00
2019-02-08T15:50:49.879Z,9.00
2019-02-08T15:52:05.746Z,9.00
2019-02-08T15:54:44.764Z,9.00
2019-02-08T15:57:23.690Z,8.90
2019-02-08T16:00:10.855Z,8.90
2019-02-08T16:02:50.381Z,8.80
2019-02-08T16:05:25.133Z,8.80
2019-02-08T16:07:58.553Z,8.70
2019-02-08T16:10:37.581Z,8.70
2019-02-08T16:17:55.958Z,8.60
2019-02-08T16:20:36.472Z,8.60
2019-02-08T16:23:09.977Z,8.60
2019-02-08T16:26:06.664Z,8.50
2019-02-08T16:28:51.837Z,8.50
2019-02-08T16:31:44.788Z,8.50
2019-02-08T16:34:55.622Z,8.50
2019-02-08T16:37:39.077Z,8.40
2019-02-08T16:40:37.095Z,8.40
2019-02-08T16:43:16.716Z,8.40
2019-02-08T16:45:51.089Z,8.40
2019-02-08T16:48:30.720Z,8.40
2019-02-08T16:51:03.168Z,8.40
2019-02-08T16:53:44.794Z,8.40
2019-02-08T16:56:24.514Z,8.40
2019-02-08T16:59:06.485Z,8.40
2019-02-08T17:02:18.047Z,8.40
2019-02-08T17:04:51.574Z,8.40
2019-02-08T17:07:27.918Z,8.40
2019-02-08T17:10:04.509Z,8.40
2019-02-08T17:12:59.665Z,8.40
2019-02-08T17:15:37.754Z,8.40
2019-02-08T17:18:44.173Z,8.30
2019-02-08T17:21:29.535Z,8.30
2019-02-08T17:23:58.767Z,8.30
2019-02-08T17:26:47.278Z,8.20
2019-02-08T17:29:21.922Z,8.20
2019-02-08T17:32:18.344Z,8.20
2019-02-08T17:35:00.242Z,8.10
2019-02-08T17:37:36.144Z,8.10
2019-02-08T17:40:18.449Z,8.00
2019-02-08T17:43:11.863Z,7.90
2019-02-08T17:49:47.906Z,7.80
2019-02-08T17:52:28.828Z,7.80
2019-02-08T17:55:17.362Z,7.80
2019-02-08T17:58:03.204Z,7.70
2019-02-08T18:01:11.564Z,7.70
2019-02-08T18:03:42.939Z,7.70
2019-02-08T18:06:15.306Z,7.70
2019-02-08T18:08:56.390Z,7.60
2019-02-08T18:11:27.330Z,7.60
2019-02-08T18:14:10.245Z,7.50
2019-02-08T18:16:47.037Z,7.50
2019-02-08T18:19:23.966Z,7.50
2019-02-08T18:22:00.767Z,7.40
2019-02-08T18:24:56.910Z,7.40
2019-02-08T18:27:33.280Z,7.40
2019-02-08T18:30:10.048Z,7.30
2019-02-08T18:32:48.268Z,7.30
2019-02-08T18:35:50.099Z,7.30
2019-02-08T18:38:37.339Z,7.30
2019-02-08T18:41:11.670Z,7.30
2019-02-08T18:43:45.358Z,7.30
2019-02-08T18:46:27.371Z,7.30
2019-02-08T18:48:58.102Z,7.30
2019-02-08T18:51:34.882Z,7.30
2019-02-08T18:54:15.330Z,7.30
2019-02-08T18:57:01.448Z,7.40
2019-02-08T18:59:32.410Z,7.40
2019-02-08T19:02:14.090Z,7.40
2019-02-08T19:04:45.006Z,7.40
2019-02-08T19:07:55.009Z,7.40
2019-02-08T19:10:17.678Z,7.40
2019-02-08T19:12:52.172Z,7.40
2019-02-08T19:15:35.223Z,7.40
2019-02-08T19:18:15.404Z,7.30
2019-02-08T19:20:58.307Z,7.30
2019-02-08T19:23:44.154Z,7.30
2019-02-08T19:26:21.335Z,7.30
2019-02-08T19:28:52.383Z,7.30
2019-02-08T19:31:23.765Z,7.30
2019-02-08T19:33:54.829Z,7.30
2019-02-08T19:36:37.348Z,7.30
2019-02-08T19:39:17.439Z,7.30
2019-02-08T19:41:45.288Z,7.30
2019-02-08T19:44:18.084Z,7.30
2019-02-08T19:46:50.434Z,7.30
2019-02-08T19:49:39.729Z,7.30
2019-02-08T19:52:13.041Z,7.30
2019-02-08T19:54:52.164Z,7.30
2019-02-08T19:57:35.376Z,7.30
2019-02-08T20:00:16.611Z,7.30
2019-02-08T20:02:54.559Z,7.20
2019-02-08T20:05:30.050Z,7.20
2019-02-08T20:08:00.861Z,7.30
2019-02-08T20:10:40.832Z,7.30
2019-02-08T20:13:15.690Z,7.30
2019-02-08T20:15:59.654Z,7.30
2019-02-08T20:18:36.267Z,7.30
2019-02-08T20:21:12.939Z,7.30
2019-02-08T20:23:43.784Z,7.30
2019-02-08T20:26:17.892Z,7.30
2019-02-08T20:28:51.979Z,7.30
2019-02-08T20:31:24.794Z,7.30
2019-02-08T20:33:57.716Z,7.30
2019-02-08T20:36:28.293Z,7.30
2019-02-08T20:39:01.487Z,7.30
2019-02-08T20:41:32.374Z,7.30
2019-02-08T20:44:05.003Z,7.30
2019-02-08T20:46:39.843Z,7.30
2019-02-08T20:49:13.513Z,7.30
2019-02-08T20:51:47.943Z,7.30
2019-02-08T20:54:18.621Z,7.30
2019-02-08T20:56:58.585Z,7.30
2019-02-08T20:59:33.243Z,7.30
2019-02-08T21:02:07.119Z,7.30
2019-02-08T21:04:38.250Z,7.30
2019-02-08T21:07:14.677Z,7.30
2019-02-08T21:09:53.608Z,7.30
2019-02-08T21:12:26.368Z,7.30
2019-02-08T21:15:12.530Z,7.30
2019-02-08T21:17:42.441Z,7.30
2019-02-08T21:20:18.457Z,7.30
2019-02-08T21:22:50.230Z,7.30
2019-02-08T21:25:29.120Z,7.30
2019-02-08T21:28:05.560Z,7.30
2019-02-08T21:30:42.437Z,7.30
2019-02-08T21:33:27.280Z,7.30
2019-02-08T21:35:59.841Z,7.20
2019-02-08T21:38:36.455Z,7.20
2019-02-08T21:41:11.458Z,7.20
2019-02-08T21:43:52.409Z,7.20
2019-02-08T21:46:31.617Z,7.20
2019-02-08T21:49:09.229Z,7.20
2019-02-08T21:51:49.343Z,7.10
2019-02-08T21:54:27.907Z,7.20
2019-02-08T21:57:32.114Z,7.10
2019-02-08T22:00:04.010Z,7.10
2019-02-08T22:02:44.478Z,7.10
2019-02-08T22:05:52.424Z,7.10
2019-02-08T22:08:15.842Z,7.10
2019-02-08T22:10:53.870Z,7.10
2019-02-08T22:13:44.880Z,7.10
2019-02-08T22:16:09.727Z,7.10
2019-02-08T22:18:40.996Z,7.10
2019-02-08T22:21:51.809Z,7.10
2019-02-08T22:24:27.210Z,7.10
2019-02-08T22:27:12.230Z,7.10
2019-02-08T22:29:48.242Z,7.10
2019-02-08T22:32:44.638Z,7.10
2019-02-08T22:35:22.606Z,7.10
2019-02-08T22:38:09.806Z,7.10
2019-02-08T22:41:09.547Z,7.10
2019-02-08T22:43:44.370Z,7.10
2019-02-08T22:46:24.192Z,7.10
2019-02-08T22:49:29.542Z,7.10
2019-02-08T22:54:57.033Z,7.10
2019-02-08T22:58:07.313Z,7.10
2019-02-08T23:01:51.786Z,7.10
2019-02-08T23:04:32.321Z,7.10
2019-02-08T23:07:20.384Z,7.10
2019-02-08T23:10:12.476Z,7.10
2019-02-08T23:12:27.302Z,7.20
2019-02-08T23:15:48.618Z,7.20
2019-02-08T23:18:20.932Z,7.20
2019-02-08T23:21:01.437Z,7.20
2019-02-08T23:24:02.886Z,7.20
2019-02-08T23:26:56.373Z,7.20
2019-02-08T23:29:39.925Z,7.20
2019-02-08T23:32:24.670Z,7.20
2019-02-08T23:35:18.234Z,7.20
2019-02-08T23:38:01.159Z,7.10
2019-02-08T23:40:37.901Z,7.20
2019-02-08T23:43:36.691Z,7.10
2019-02-08T23:46:32.026Z,7.10
2019-02-08T23:48:54.086Z,7.10
2019-02-08T23:51:28.612Z,7.10
2019-02-08T23:54:09.657Z,7.10
2019-02-08T23:56:54.949Z,7.10
2019-02-08T23:59:37.697Z,7.10
